CMB4664 PABR-KRME
Flight info
| Callsign | CMB4664 |
|---|---|
| Flight time | N/A |
| Altitude | 33000 |
| Route | SCC ADREW YEV 68N30 67N124W 65N17/N0477F350 64N114W 63N108W 62N104W 60N98W YYQ/N0482F370 5890N 57N086W 5584N 54N082W 5079N YVO Q837 EPRES Q997 SASID/N0470F400 IKLAX Q844 VIBRU T634 BRUIN |
| Aircraft | CL60/M-SBDE1E2E3FGHIJ1J4J5J7M3RWXYZ/LB1V1D1 |
Departure
| Time | 2026-04-22 02:46 |
|---|---|
| Airport | Wiley Post Will Rogers Memorial Airport (PABR) |
Arrival
| Time | N/A |
|---|---|
| Airport | Griffiss International Airport (KRME) |
| Time | Latitude | Longitude | Altitude | Speed | Heading |
|---|---|---|---|---|---|
| 2026-04-22 02:31 | 71.28714 | -156.77387 | 16 ft | 0 kts | 269° |
| 2026-04-22 02:43 | 71.28712 | -156.77544 | 17 ft | 17 kts | 255° |
| 2026-04-22 02:43 | 71.28677 | -156.77751 | 18 ft | 9 kts | 253° |
| 2026-04-22 02:44 | 71.28680 | -156.77975 | 18 ft | 10 kts | 272° |
| 2026-04-22 02:44 | 71.28678 | -156.78235 | 18 ft | 12 kts | 270° |
| 2026-04-22 02:44 | 71.28673 | -156.78545 | 18 ft | 17 kts | 261° |
| 2026-04-22 02:44 | 71.28640 | -156.78966 | 16 ft | 20 kts | 252° |
| 2026-04-22 02:45 | 71.28603 | -156.79283 | 16 ft | 12 kts | 222° |
| 2026-04-22 02:45 | 71.28518 | -156.79288 | 16 ft | 12 kts | 146° |
| 2026-04-22 02:45 | 71.28488 | -156.79117 | 19 ft | 2 kts | 89° |
| 2026-04-22 02:45 | 71.28488 | -156.78223 | 19 ft | 83 kts | 90° |
| 2026-04-22 02:46 | 71.28486 | -156.75417 | 23 ft | 152 kts | 88° |
| 2026-04-22 02:46 | 71.28474 | -156.71802 | 652 ft | 160 kts | 89° |
| 2026-04-22 02:46 | 71.28437 | -156.68146 | 1151 ft | 178 kts | 89° |
| 2026-04-22 02:46 | 71.28416 | -156.64064 | 1737 ft | 195 kts | 88° |
| 2026-04-22 02:47 | 71.28307 | -156.59705 | 2479 ft | 205 kts | 98° |
| 2026-04-22 02:47 | 71.28002 | -156.55318 | 3268 ft | 211 kts | 100° |
| 2026-04-22 02:47 | 71.27671 | -156.50890 | 4062 ft | 214 kts | 102° |
| 2026-04-22 02:47 | 71.27219 | -156.46315 | 4662 ft | 231 kts | 106° |
| 2026-04-22 02:48 | 71.26689 | -156.41376 | 5144 ft | 247 kts | 107° |
| 2026-04-22 02:48 | 71.26132 | -156.36221 | 5742 ft | 254 kts | 107° |
| 2026-04-22 02:48 | 71.25568 | -156.30983 | 6339 ft | 258 kts | 108° |
| 2026-04-22 02:48 | 71.24989 | -156.25627 | 6942 ft | 261 kts | 108° |
| 2026-04-22 02:49 | 71.24403 | -156.20212 | 7564 ft | 263 kts | 108° |
| 2026-04-22 02:49 | 71.23817 | -156.14810 | 8185 ft | 265 kts | 108° |
| 2026-04-22 02:49 | 71.23222 | -156.09334 | 8814 ft | 267 kts | 108° |
| 2026-04-22 02:49 | 71.22624 | -156.03839 | 9445 ft | 269 kts | 107° |
| 2026-04-22 02:50 | 71.22010 | -155.98210 | 10087 ft | 272 kts | 107° |
| 2026-04-22 02:50 | 71.21394 | -155.92570 | 10727 ft | 276 kts | 108° |
| 2026-04-22 02:50 | 71.20766 | -155.86819 | 11393 ft | 280 kts | 108° |
| 2026-04-22 02:50 | 71.20131 | -155.81053 | 12059 ft | 283 kts | 108° |
| 2026-04-22 02:51 | 71.19494 | -155.75270 | 12723 ft | 285 kts | 108° |
| 2026-04-22 02:51 | 71.18846 | -155.69412 | 13387 ft | 286 kts | 108° |
| 2026-04-22 02:51 | 71.18192 | -155.63519 | 14038 ft | 286 kts | 108° |
| 2026-04-22 02:51 | 71.17521 | -155.57494 | 14686 ft | 287 kts | 108° |
| 2026-04-22 02:52 | 71.16836 | -155.51364 | 15330 ft | 287 kts | 108° |
| 2026-04-22 02:52 | 71.16161 | -155.45338 | 15944 ft | 288 kts | 108° |
| 2026-04-22 02:52 | 71.15472 | -155.39200 | 16553 ft | 288 kts | 108° |
| 2026-04-22 02:52 | 71.14757 | -155.32866 | 17157 ft | 288 kts | 109° |
| 2026-04-22 02:53 | 71.14056 | -155.26674 | 17727 ft | 288 kts | 109° |
| 2026-04-22 02:53 | 71.13341 | -155.20373 | 18292 ft | 288 kts | 109° |
| 2026-04-22 02:53 | 71.12624 | -155.14082 | 18842 ft | 287 kts | 109° |
| 2026-04-22 02:53 | 71.11919 | -155.07922 | 19361 ft | 286 kts | 109° |
| 2026-04-22 02:54 | 71.11205 | -155.01704 | 19867 ft | 286 kts | 109° |
| 2026-04-22 02:54 | 71.10497 | -154.95550 | 20352 ft | 285 kts | 109° |
| 2026-04-22 02:54 | 71.09777 | -154.89320 | 20828 ft | 285 kts | 109° |
| 2026-04-22 02:54 | 71.09064 | -154.83166 | 21121 ft | 292 kts | 109° |
| 2026-04-22 02:55 | 71.08340 | -154.76941 | 21161 ft | 307 kts | 109° |
| 2026-04-22 02:55 | 71.07584 | -154.70477 | 21203 ft | 320 kts | 109° |
| 2026-04-22 02:55 | 71.06786 | -154.63678 | 21239 ft | 341 kts | 109° |
| 2026-04-22 02:55 | 71.05913 | -154.56280 | 21249 ft | 361 kts | 109° |
| 2026-04-22 02:56 | 71.04997 | -154.48550 | 21390 ft | 376 kts | 109° |
| 2026-04-22 02:56 | 71.04071 | -154.40767 | 21738 ft | 383 kts | 110° |
| 2026-04-22 02:56 | 71.03090 | -154.32562 | 22192 ft | 386 kts | 110° |
| 2026-04-22 02:56 | 71.02118 | -154.24468 | 22649 ft | 389 kts | 110° |
| 2026-04-22 02:57 | 71.01129 | -154.16267 | 23090 ft | 392 kts | 110° |
| 2026-04-22 02:57 | 71.00125 | -154.07976 | 23509 ft | 395 kts | 110° |
| 2026-04-22 02:57 | 70.99065 | -153.99260 | 23959 ft | 398 kts | 110° |
| 2026-04-22 02:57 | 70.98013 | -153.90660 | 24403 ft | 401 kts | 111° |
| 2026-04-22 02:58 | 70.96929 | -153.81833 | 24838 ft | 404 kts | 111° |
| 2026-04-22 02:58 | 70.95829 | -153.72920 | 25256 ft | 406 kts | 111° |
| 2026-04-22 02:58 | 70.94732 | -153.64072 | 25635 ft | 409 kts | 111° |
| 2026-04-22 02:58 | 70.93607 | -153.55052 | 25993 ft | 412 kts | 111° |
| 2026-04-22 02:59 | 70.92446 | -153.45779 | 26347 ft | 415 kts | 111° |
| 2026-04-22 02:59 | 70.91254 | -153.36314 | 26707 ft | 418 kts | 111° |
| 2026-04-22 02:59 | 70.90052 | -153.26814 | 27017 ft | 421 kts | 112° |
| 2026-04-22 02:59 | 70.88826 | -153.17172 | 27316 ft | 425 kts | 112° |
| 2026-04-22 03:00 | 70.87594 | -153.07542 | 27604 ft | 428 kts | 112° |
| 2026-04-22 03:00 | 70.86347 | -152.97845 | 27871 ft | 430 kts | 112° |
| 2026-04-22 03:00 | 70.85078 | -152.88025 | 28129 ft | 433 kts | 112° |
| 2026-04-22 03:00 | 70.83797 | -152.78162 | 28376 ft | 436 kts | 112° |
| 2026-04-22 03:01 | 70.82519 | -152.68376 | 28608 ft | 438 kts | 112° |
| 2026-04-22 03:01 | 70.81236 | -152.58614 | 28827 ft | 441 kts | 112° |
| 2026-04-22 03:01 | 70.79941 | -152.48802 | 29037 ft | 443 kts | 112° |
| 2026-04-22 03:01 | 70.78641 | -152.39004 | 29239 ft | 446 kts | 112° |
| 2026-04-22 03:02 | 70.77334 | -152.29210 | 29426 ft | 448 kts | 113° |
| 2026-04-22 03:02 | 70.75997 | -152.19244 | 29606 ft | 450 kts | 113° |
| 2026-04-22 03:02 | 70.74658 | -152.09320 | 29775 ft | 452 kts | 113° |
| 2026-04-22 03:02 | 70.73289 | -151.99217 | 29968 ft | 453 kts | 113° |
| 2026-04-22 03:03 | 70.71936 | -151.89293 | 30181 ft | 453 kts | 113° |
| 2026-04-22 03:03 | 70.70576 | -151.79373 | 30421 ft | 454 kts | 113° |
| 2026-04-22 03:03 | 70.69197 | -151.69360 | 30671 ft | 453 kts | 113° |
| 2026-04-22 03:03 | 70.67786 | -151.59166 | 30921 ft | 453 kts | 113° |
| 2026-04-22 03:04 | 70.66405 | -151.49251 | 31150 ft | 454 kts | 113° |
| 2026-04-22 03:04 | 70.64999 | -151.39204 | 31372 ft | 454 kts | 113° |
| 2026-04-22 03:04 | 70.63638 | -151.29533 | 31560 ft | 454 kts | 114° |
| 2026-04-22 03:04 | 70.62264 | -151.19814 | 31718 ft | 455 kts | 114° |
| 2026-04-22 03:05 | 70.60907 | -151.10269 | 31865 ft | 455 kts | 114° |
| 2026-04-22 03:05 | 70.59516 | -151.00539 | 32008 ft | 456 kts | 114° |
| 2026-04-22 03:05 | 70.58118 | -150.90797 | 32149 ft | 456 kts | 114° |
| 2026-04-22 03:05 | 70.56692 | -150.80916 | 32282 ft | 457 kts | 114° |
| 2026-04-22 03:06 | 70.55280 | -150.71185 | 32408 ft | 458 kts | 114° |
| 2026-04-22 03:06 | 70.53800 | -150.61037 | 32550 ft | 458 kts | 114° |
| 2026-04-22 03:06 | 70.52382 | -150.51358 | 32696 ft | 459 kts | 114° |
| 2026-04-22 03:06 | 70.50938 | -150.41551 | 32847 ft | 459 kts | 114° |
| 2026-04-22 03:07 | 70.49495 | -150.31805 | 32992 ft | 459 kts | 115° |
| 2026-04-22 03:07 | 70.48046 | -150.22066 | 33129 ft | 459 kts | 115° |
| 2026-04-22 03:07 | 70.46554 | -150.12088 | 33252 ft | 459 kts | 115° |
| 2026-04-22 03:08 | 70.43591 | -149.92430 | 33293 ft | 466 kts | 115° |
| 2026-04-22 03:08 | 70.40584 | -149.72676 | 33289 ft | 473 kts | 115° |
| 2026-04-22 03:09 | 70.37498 | -149.52618 | 33289 ft | 479 kts | 115° |
| 2026-04-22 03:09 | 70.34272 | -149.31857 | 33291 ft | 483 kts | 116° |
| 2026-04-22 03:10 | 70.30984 | -149.10924 | 33294 ft | 488 kts | 116° |
| 2026-04-22 03:10 | 70.27638 | -148.89847 | 33290 ft | 492 kts | 116° |
| 2026-04-22 03:11 | 70.24252 | -148.68751 | 33291 ft | 495 kts | 116° |
| 2026-04-22 03:11 | 70.20857 | -148.47809 | 33290 ft | 497 kts | 115° |
| 2026-04-22 03:12 | 70.18063 | -148.26096 | 33293 ft | 499 kts | 109° |
| 2026-04-22 03:12 | 70.14262 | -147.92664 | 33284 ft | 501 kts | 109° |
| 2026-04-22 03:13 | 70.11705 | -147.70567 | 33291 ft | 502 kts | 109° |
| 2026-04-22 03:13 | 70.09116 | -147.48505 | 33288 ft | 503 kts | 109° |
| 2026-04-22 03:14 | 70.06484 | -147.26378 | 33282 ft | 503 kts | 110° |
| 2026-04-22 03:14 | 70.03882 | -147.04778 | 33275 ft | 503 kts | 110° |
| 2026-04-22 03:15 | 70.01215 | -146.82936 | 33273 ft | 503 kts | 110° |
| 2026-04-22 03:15 | 69.98500 | -146.60971 | 33265 ft | 503 kts | 110° |
| 2026-04-22 03:16 | 69.95775 | -146.39208 | 33258 ft | 503 kts | 110° |
| 2026-04-22 03:16 | 69.92989 | -146.17246 | 33263 ft | 503 kts | 111° |
| 2026-04-22 03:17 | 69.90192 | -145.95456 | 33254 ft | 505 kts | 111° |
| 2026-04-22 03:17 | 69.87415 | -145.74077 | 33252 ft | 504 kts | 111° |
| 2026-04-22 03:18 | 69.84551 | -145.52296 | 33208 ft | 505 kts | 111° |
| 2026-04-22 03:18 | 69.81721 | -145.31035 | 33194 ft | 505 kts | 112° |
| 2026-04-22 03:19 | 69.78844 | -145.09672 | 33160 ft | 505 kts | 112° |
| 2026-04-22 03:19 | 69.75934 | -144.88318 | 33132 ft | 505 kts | 112° |
| 2026-04-22 03:20 | 69.73009 | -144.67094 | 33129 ft | 506 kts | 112° |
| 2026-04-22 03:20 | 69.70098 | -144.46216 | 33117 ft | 506 kts | 112° |
| 2026-04-22 03:21 | 69.67146 | -144.25276 | 33093 ft | 506 kts | 113° |
| 2026-04-22 03:21 | 69.64110 | -144.03984 | 33094 ft | 506 kts | 113° |
| 2026-04-22 03:22 | 69.61091 | -143.83043 | 33093 ft | 505 kts | 113° |
| 2026-04-22 03:22 | 69.58034 | -143.62082 | 33089 ft | 505 kts | 113° |
| 2026-04-22 03:23 | 69.54960 | -143.41225 | 33075 ft | 505 kts | 113° |
| 2026-04-22 03:23 | 69.51874 | -143.20522 | 33056 ft | 505 kts | 114° |
| 2026-04-22 03:24 | 69.48735 | -142.99681 | 33062 ft | 505 kts | 114° |
| 2026-04-22 03:24 | 69.45561 | -142.78844 | 32949 ft | 508 kts | 114° |
| 2026-04-22 03:25 | 69.43954 | -142.68370 | 32815 ft | 510 kts | 114° |
| 2026-04-22 03:25 | 69.42323 | -142.57799 | 32542 ft | 514 kts | 114° |
| 2026-04-22 03:25 | 69.40690 | -142.47270 | 32277 ft | 514 kts | 114° |
| 2026-04-22 03:25 | 69.39045 | -142.36726 | 32321 ft | 510 kts | 114° |
| 2026-04-22 03:26 | 69.35834 | -142.16301 | 32323 ft | 507 kts | 115° |
| 2026-04-22 03:26 | 69.34165 | -142.05778 | 32450 ft | 502 kts | 115° |
| 2026-04-22 03:26 | 69.32551 | -141.95654 | 32798 ft | 494 kts | 115° |
| 2026-04-22 03:27 | 69.30953 | -141.85683 | 32980 ft | 491 kts | 115° |
| 2026-04-22 03:27 | 69.29354 | -141.75758 | 33073 ft | 490 kts | 115° |
| 2026-04-22 03:27 | 69.26086 | -141.55614 | 33066 ft | 493 kts | 115° |
| 2026-04-22 03:28 | 69.22793 | -141.35530 | 33034 ft | 497 kts | 115° |
| 2026-04-22 03:28 | 69.21147 | -141.25569 | 32922 ft | 501 kts | 116° |
| 2026-04-22 03:28 | 69.19480 | -141.15523 | 32925 ft | 502 kts | 116° |
| 2026-04-22 03:29 | 69.17779 | -141.05260 | 33027 ft | 500 kts | 115° |
| 2026-04-22 03:29 | 69.16465 | -140.94894 | 33057 ft | 501 kts | 106° |
| 2026-04-22 03:29 | 69.14511 | -140.73572 | 33049 ft | 504 kts | 104° |
| 2026-04-22 03:30 | 69.12529 | -140.52092 | 33157 ft | 503 kts | 104° |
| 2026-04-22 03:30 | 69.10494 | -140.30377 | 33133 ft | 506 kts | 105° |
| 2026-04-22 03:31 | 69.09467 | -140.19534 | 33015 ft | 509 kts | 105° |
| 2026-04-22 03:31 | 69.08426 | -140.08632 | 32924 ft | 510 kts | 105° |
| 2026-04-22 03:31 | 69.06342 | -139.87032 | 32862 ft | 509 kts | 105° |
| 2026-04-22 03:32 | 69.04219 | -139.65381 | 32901 ft | 509 kts | 105° |
| 2026-04-22 03:32 | 69.02087 | -139.43939 | 32816 ft | 509 kts | 105° |
| 2026-04-22 03:33 | 69.01020 | -139.33330 | 32931 ft | 507 kts | 107° |
| 2026-04-22 03:33 | 68.99943 | -139.22699 | 32994 ft | 506 kts | 107° |
| 2026-04-22 03:33 | 68.97768 | -139.01466 | 33097 ft | 505 kts | 107° |
| 2026-04-22 03:34 | 68.95531 | -138.79927 | 33124 ft | 505 kts | 107° |
| 2026-04-22 03:34 | 68.93287 | -138.58614 | 33116 ft | 507 kts | 107° |
| 2026-04-22 03:35 | 68.90996 | -138.37149 | 33102 ft | 508 kts | 107° |
| 2026-04-22 03:35 | 68.88671 | -138.15675 | 33113 ft | 508 kts | 108° |
| 2026-04-22 03:36 | 68.86311 | -137.94170 | 33139 ft | 509 kts | 108° |
| 2026-04-22 03:36 | 68.83905 | -137.72540 | 33141 ft | 509 kts | 108° |
| 2026-04-22 03:37 | 68.81496 | -137.51173 | 33160 ft | 509 kts | 108° |
| 2026-04-22 03:37 | 68.79112 | -137.30306 | 33159 ft | 510 kts | 109° |
| 2026-04-22 03:38 | 68.76625 | -137.08812 | 33155 ft | 511 kts | 109° |
| 2026-04-22 03:38 | 68.74137 | -136.87593 | 33151 ft | 511 kts | 109° |
| 2026-04-22 03:39 | 68.71600 | -136.66229 | 33144 ft | 512 kts | 109° |
| 2026-04-22 03:39 | 68.69061 | -136.45122 | 33182 ft | 511 kts | 109° |
| 2026-04-22 03:40 | 68.66468 | -136.23853 | 33169 ft | 512 kts | 110° |
| 2026-04-22 03:40 | 68.63861 | -136.02722 | 33147 ft | 513 kts | 110° |
| 2026-04-22 03:41 | 68.61248 | -135.81798 | 33166 ft | 512 kts | 110° |
| 2026-04-22 03:41 | 68.58634 | -135.61128 | 33180 ft | 512 kts | 110° |
| 2026-04-22 03:42 | 68.56020 | -135.40700 | 33183 ft | 512 kts | 110° |
| 2026-04-22 03:42 | 68.53365 | -135.20192 | 33182 ft | 512 kts | 111° |
| 2026-04-22 03:43 | 68.50687 | -134.99757 | 33181 ft | 513 kts | 111° |
| 2026-04-22 03:43 | 68.47965 | -134.79215 | 33180 ft | 513 kts | 111° |
| 2026-04-22 03:44 | 68.45175 | -134.58417 | 33180 ft | 513 kts | 111° |
| 2026-04-22 03:44 | 68.42406 | -134.38014 | 33180 ft | 513 kts | 111° |
| 2026-04-22 03:45 | 68.39571 | -134.17354 | 33178 ft | 512 kts | 111° |
| 2026-04-22 03:45 | 68.36702 | -133.96681 | 33176 ft | 512 kts | 112° |
| 2026-04-22 03:46 | 68.33808 | -133.76073 | 33207 ft | 512 kts | 112° |
| 2026-04-22 03:46 | 68.30987 | -133.55749 | 33198 ft | 513 kts | 108° |
| 2026-04-22 03:47 | 68.29245 | -133.34671 | 33183 ft | 513 kts | 103° |
| 2026-04-22 03:47 | 68.27586 | -133.13097 | 33175 ft | 514 kts | 103° |
| 2026-04-22 03:48 | 68.25917 | -132.91812 | 33133 ft | 514 kts | 103° |
| 2026-04-22 03:48 | 68.24209 | -132.70407 | 33089 ft | 515 kts | 103° |
| 2026-04-22 03:49 | 68.22483 | -132.49171 | 33113 ft | 514 kts | 103° |
| 2026-04-22 03:49 | 68.20727 | -132.27937 | 33107 ft | 515 kts | 104° |
| 2026-04-22 03:50 | 68.18922 | -132.06490 | 33106 ft | 515 kts | 104° |
| 2026-04-22 03:50 | 68.17084 | -131.85005 | 33111 ft | 515 kts | 104° |
| 2026-04-22 03:51 | 68.15227 | -131.63658 | 33123 ft | 515 kts | 104° |
| 2026-04-22 03:51 | 68.13361 | -131.42555 | 33129 ft | 515 kts | 104° |
| 2026-04-22 03:52 | 68.11468 | -131.21489 | 33086 ft | 516 kts | 105° |
| 2026-04-22 03:52 | 68.09529 | -131.00238 | 33068 ft | 517 kts | 105° |
| 2026-04-22 03:53 | 68.07559 | -130.78986 | 33088 ft | 516 kts | 105° |
| 2026-04-22 03:53 | 68.05592 | -130.58104 | 33087 ft | 516 kts | 105° |
| 2026-04-22 03:54 | 68.03573 | -130.36977 | 33089 ft | 517 kts | 105° |
| 2026-04-22 03:54 | 68.01522 | -130.15848 | 33089 ft | 517 kts | 106° |
| 2026-04-22 03:55 | 67.99276 | -129.94862 | 33081 ft | 516 kts | 111° |
| 2026-04-22 03:55 | 67.96351 | -129.74463 | 33128 ft | 515 kts | 112° |
| 2026-04-22 03:56 | 67.93423 | -129.54301 | 33106 ft | 516 kts | 112° |
| 2026-04-22 03:56 | 67.90459 | -129.34091 | 33091 ft | 517 kts | 113° |
| 2026-04-22 03:57 | 67.87479 | -129.13985 | 33078 ft | 516 kts | 113° |
| 2026-04-22 03:57 | 67.84462 | -128.93831 | 33073 ft | 516 kts | 113° |
| 2026-04-22 03:58 | 67.81418 | -128.73714 | 33071 ft | 516 kts | 113° |
| 2026-04-22 03:58 | 67.78326 | -128.53487 | 33064 ft | 516 kts | 113° |
| 2026-04-22 03:59 | 67.75258 | -128.33629 | 33061 ft | 517 kts | 114° |
| 2026-04-22 03:59 | 67.72131 | -128.13591 | 33044 ft | 517 kts | 114° |
| 2026-04-22 04:00 | 67.68999 | -127.93739 | 33020 ft | 518 kts | 114° |
| 2026-04-22 04:00 | 67.65857 | -127.74027 | 33016 ft | 518 kts | 114° |
| 2026-04-22 04:01 | 67.62678 | -127.54280 | 33017 ft | 519 kts | 114° |
| 2026-04-22 04:01 | 67.59428 | -127.34300 | 33011 ft | 519 kts | 115° |
| 2026-04-22 04:02 | 67.56169 | -127.14463 | 33011 ft | 519 kts | 115° |
| 2026-04-22 04:02 | 67.52961 | -126.95131 | 33015 ft | 519 kts | 115° |
| 2026-04-22 04:03 | 67.49627 | -126.75243 | 33003 ft | 519 kts | 115° |
| 2026-04-22 04:03 | 67.46368 | -126.55995 | 33010 ft | 519 kts | 115° |
| 2026-04-22 04:04 | 67.43042 | -126.36546 | 33000 ft | 519 kts | 115° |
| 2026-04-22 04:04 | 67.39657 | -126.16940 | 32995 ft | 519 kts | 116° |
| 2026-04-22 04:05 | 67.36232 | -125.97301 | 33007 ft | 519 kts | 116° |
| 2026-04-22 04:05 | 67.32814 | -125.77895 | 33010 ft | 519 kts | 116° |
| 2026-04-22 04:06 | 67.29347 | -125.58396 | 32999 ft | 520 kts | 116° |
| 2026-04-22 04:06 | 67.25863 | -125.38989 | 32963 ft | 521 kts | 116° |
| 2026-04-22 04:07 | 67.22350 | -125.19606 | 32929 ft | 520 kts | 117° |
| 2026-04-22 04:07 | 67.18820 | -125.00318 | 32970 ft | 519 kts | 117° |
| 2026-04-22 04:08 | 67.15246 | -124.80975 | 32995 ft | 519 kts | 117° |
| 2026-04-22 04:08 | 67.11700 | -124.61964 | 32987 ft | 520 kts | 117° |
| 2026-04-22 04:09 | 67.08101 | -124.42847 | 32970 ft | 521 kts | 117° |
| 2026-04-22 04:09 | 67.04483 | -124.23807 | 33007 ft | 520 kts | 118° |
| 2026-04-22 04:10 | 67.00829 | -124.04755 | 33040 ft | 520 kts | 118° |
| 2026-04-22 04:10 | 66.96705 | -123.86507 | 33034 ft | 519 kts | 124° |
| 2026-04-22 04:11 | 66.92334 | -123.68790 | 33036 ft | 519 kts | 124° |
| 2026-04-22 04:11 | 66.87962 | -123.51183 | 33031 ft | 520 kts | 124° |
| 2026-04-22 04:12 | 66.83543 | -123.33512 | 33023 ft | 520 kts | 125° |
| 2026-04-22 04:12 | 66.79105 | -123.15891 | 33006 ft | 520 kts | 125° |
| 2026-04-22 04:13 | 66.74583 | -122.98068 | 32974 ft | 520 kts | 125° |
| 2026-04-22 04:13 | 66.70094 | -122.80506 | 32975 ft | 520 kts | 125° |
| 2026-04-22 04:14 | 66.65591 | -122.63034 | 33014 ft | 519 kts | 125° |
| 2026-04-22 04:14 | 66.61259 | -122.46352 | 33056 ft | 519 kts | 125° |
| 2026-04-22 04:15 | 66.56879 | -122.29603 | 33061 ft | 520 kts | 126° |
| 2026-04-22 04:15 | 66.52561 | -122.13216 | 33110 ft | 519 kts | 126° |
| 2026-04-22 04:16 | 66.46144 | -121.89088 | 33182 ft | 518 kts | 126° |
| 2026-04-22 04:17 | 66.41852 | -121.73089 | 33195 ft | 518 kts | 126° |
| 2026-04-22 04:17 | 66.37530 | -121.57097 | 33204 ft | 518 kts | 126° |
| 2026-04-22 04:18 | 66.33137 | -121.40959 | 33201 ft | 519 kts | 126° |
| 2026-04-22 04:18 | 66.28587 | -121.24365 | 33201 ft | 519 kts | 127° |
| 2026-04-22 04:19 | 66.23948 | -121.07582 | 33203 ft | 519 kts | 127° |
| 2026-04-22 04:19 | 66.19310 | -120.90920 | 33217 ft | 519 kts | 127° |
| 2026-04-22 04:20 | 66.14645 | -120.74287 | 33233 ft | 519 kts | 127° |
| 2026-04-22 04:20 | 66.10135 | -120.58324 | 33225 ft | 521 kts | 127° |
| 2026-04-22 04:21 | 66.05435 | -120.41811 | 33223 ft | 522 kts | 127° |
| 2026-04-22 04:21 | 66.00709 | -120.25325 | 33213 ft | 522 kts | 128° |
| 2026-04-22 04:22 | 65.96017 | -120.09081 | 33209 ft | 522 kts | 128° |
| 2026-04-22 04:22 | 65.91341 | -119.93010 | 33205 ft | 522 kts | 128° |
| 2026-04-22 04:23 | 65.86604 | -119.76849 | 33186 ft | 522 kts | 128° |
| 2026-04-22 04:23 | 65.81777 | -119.60494 | 33163 ft | 522 kts | 128° |
| 2026-04-22 04:24 | 65.76847 | -119.43917 | 33107 ft | 523 kts | 128° |
| 2026-04-22 04:24 | 65.71936 | -119.27522 | 33062 ft | 522 kts | 129° |
| 2026-04-22 04:25 | 65.67022 | -119.11242 | 33065 ft | 521 kts | 128° |
| 2026-04-22 04:25 | 65.62086 | -118.95010 | 33065 ft | 521 kts | 128° |
| 2026-04-22 04:26 | 65.57079 | -118.78661 | 33079 ft | 521 kts | 128° |
| 2026-04-22 04:26 | 65.52087 | -118.62480 | 33069 ft | 521 kts | 128° |
| 2026-04-22 04:27 | 65.47134 | -118.46545 | 33066 ft | 521 kts | 128° |
| 2026-04-22 04:27 | 65.42123 | -118.30535 | 33049 ft | 522 kts | 129° |
| 2026-04-22 04:28 | 65.37077 | -118.14527 | 33044 ft | 522 kts | 129° |
| 2026-04-22 04:28 | 65.32085 | -117.98803 | 33053 ft | 522 kts | 129° |
| 2026-04-22 04:29 | 65.27000 | -117.82901 | 33040 ft | 523 kts | 129° |
| 2026-04-22 04:29 | 65.21973 | -117.67289 | 33039 ft | 523 kts | 129° |
| 2026-04-22 04:30 | 65.17083 | -117.52209 | 33036 ft | 523 kts | 129° |
| 2026-04-22 04:30 | 65.12191 | -117.37223 | 33035 ft | 522 kts | 129° |
| 2026-04-22 04:31 | 65.07260 | -117.22219 | 33035 ft | 522 kts | 130° |
| 2026-04-22 04:31 | 65.02422 | -117.07597 | 33035 ft | 521 kts | 130° |
| 2026-04-22 04:32 | 64.97591 | -116.92638 | 33033 ft | 522 kts | 128° |
| 2026-04-22 04:32 | 64.92877 | -116.77588 | 33031 ft | 522 kts | 128° |
| 2026-04-22 04:33 | 64.88172 | -116.62668 | 33030 ft | 521 kts | 128° |
| 2026-04-22 04:33 | 64.83491 | -116.47929 | 33029 ft | 521 kts | 128° |
| 2026-04-22 04:34 | 64.78715 | -116.32989 | 33027 ft | 521 kts | 129° |
| 2026-04-22 04:34 | 64.73820 | -116.17780 | 33027 ft | 521 kts | 129° |
| 2026-04-22 04:35 | 64.68796 | -116.02273 | 33025 ft | 520 kts | 129° |
| 2026-04-22 04:35 | 64.63762 | -115.86852 | 33076 ft | 519 kts | 129° |
| 2026-04-22 04:36 | 64.58699 | -115.71446 | 33115 ft | 518 kts | 129° |
| 2026-04-22 04:36 | 64.53654 | -115.56200 | 33106 ft | 519 kts | 129° |
| 2026-04-22 04:37 | 64.48600 | -115.41028 | 33103 ft | 519 kts | 129° |
| 2026-04-22 04:37 | 64.43508 | -115.25845 | 33111 ft | 519 kts | 130° |
| 2026-04-22 04:38 | 64.38447 | -115.10859 | 33111 ft | 519 kts | 130° |
| 2026-04-22 04:38 | 64.33334 | -114.95819 | 33106 ft | 520 kts | 130° |
| 2026-04-22 04:39 | 64.28240 | -114.80939 | 33106 ft | 520 kts | 130° |
| 2026-04-22 04:39 | 64.23225 | -114.66385 | 33104 ft | 520 kts | 130° |
| 2026-04-22 04:40 | 64.18116 | -114.51653 | 33095 ft | 521 kts | 130° |
| 2026-04-22 04:40 | 64.12968 | -114.36903 | 33092 ft | 521 kts | 130° |
| 2026-04-22 04:41 | 64.07911 | -114.22510 | 33093 ft | 521 kts | 130° |
| 2026-04-22 04:41 | 64.02741 | -114.07651 | 33070 ft | 522 kts | 127° |
| 2026-04-22 04:42 | 63.98837 | -113.91303 | 33055 ft | 523 kts | 111° |
| 2026-04-22 04:42 | 63.96225 | -113.73474 | 33040 ft | 523 kts | 108° |
| 2026-04-22 04:43 | 63.93641 | -113.55514 | 33044 ft | 523 kts | 108° |
| 2026-04-22 04:43 | 63.91038 | -113.37604 | 33040 ft | 523 kts | 108° |
| 2026-04-22 04:44 | 63.88482 | -113.20175 | 33035 ft | 523 kts | 109° |
| 2026-04-22 04:44 | 63.85834 | -113.02293 | 33040 ft | 523 kts | 109° |
| 2026-04-22 04:45 | 63.83233 | -112.84901 | 33040 ft | 524 kts | 109° |
| 2026-04-22 04:45 | 63.80595 | -112.67429 | 33038 ft | 525 kts | 109° |
| 2026-04-22 04:46 | 63.77951 | -112.50086 | 33033 ft | 525 kts | 109° |
| 2026-04-22 04:46 | 63.75322 | -112.33003 | 33029 ft | 525 kts | 110° |
| 2026-04-22 04:47 | 63.72633 | -112.15698 | 33024 ft | 525 kts | 110° |
| 2026-04-22 04:47 | 63.69932 | -111.98476 | 33026 ft | 525 kts | 110° |
| 2026-04-22 04:48 | 63.67198 | -111.81210 | 33036 ft | 525 kts | 110° |
| 2026-04-22 04:48 | 63.64498 | -111.64318 | 33042 ft | 525 kts | 110° |
| 2026-04-22 04:49 | 63.61800 | -111.47593 | 33043 ft | 526 kts | 110° |
| 2026-04-22 04:49 | 63.58981 | -111.30276 | 33023 ft | 527 kts | 111° |
| 2026-04-22 04:50 | 63.56096 | -111.12723 | 33030 ft | 526 kts | 111° |
| 2026-04-22 04:50 | 63.53219 | -110.95380 | 33029 ft | 527 kts | 111° |
| 2026-04-22 04:51 | 63.50292 | -110.77901 | 32997 ft | 528 kts | 111° |
| 2026-04-22 04:51 | 63.47355 | -110.60524 | 32973 ft | 528 kts | 111° |
| 2026-04-22 04:52 | 63.44373 | -110.43041 | 32962 ft | 527 kts | 111° |
| 2026-04-22 04:52 | 63.41427 | -110.25925 | 32959 ft | 527 kts | 112° |
| 2026-04-22 04:53 | 63.38394 | -110.08472 | 32952 ft | 527 kts | 112° |
| 2026-04-22 04:53 | 63.35346 | -109.91083 | 32957 ft | 526 kts | 112° |
| 2026-04-22 04:54 | 63.32301 | -109.73874 | 32953 ft | 527 kts | 112° |
| 2026-04-22 04:54 | 63.29225 | -109.56644 | 32961 ft | 527 kts | 112° |
| 2026-04-22 04:55 | 63.26112 | -109.39360 | 32980 ft | 527 kts | 112° |
| 2026-04-22 04:55 | 63.23019 | -109.22335 | 32987 ft | 527 kts | 113° |
| 2026-04-22 04:56 | 63.19849 | -109.05043 | 32985 ft | 528 kts | 113° |
| 2026-04-22 04:56 | 63.16707 | -108.88049 | 32990 ft | 528 kts | 113° |
| 2026-04-22 04:57 | 63.13547 | -108.71107 | 33002 ft | 529 kts | 113° |
| 2026-04-22 04:57 | 63.10347 | -108.54096 | 32996 ft | 530 kts | 113° |
| 2026-04-22 04:58 | 63.07095 | -108.36958 | 32991 ft | 530 kts | 113° |
| 2026-04-22 04:58 | 63.03904 | -108.20279 | 32985 ft | 530 kts | 114° |
| 2026-04-22 04:59 | 63.00627 | -108.03299 | 32983 ft | 530 kts | 114° |
| 2026-04-22 04:59 | 62.97035 | -107.86925 | 32979 ft | 530 kts | 118° |
| 2026-04-22 05:00 | 62.93236 | -107.70462 | 32976 ft | 530 kts | 118° |
| 2026-04-22 05:00 | 62.89466 | -107.54232 | 32980 ft | 530 kts | 118° |
| 2026-04-22 05:01 | 62.85622 | -107.37800 | 32980 ft | 531 kts | 118° |
| 2026-04-22 05:01 | 62.81744 | -107.21344 | 32979 ft | 531 kts | 119° |
| 2026-04-22 05:02 | 62.77905 | -107.05164 | 32982 ft | 531 kts | 119° |
| 2026-04-22 05:02 | 62.74048 | -106.89034 | 32996 ft | 531 kts | 119° |
| 2026-04-22 05:03 | 62.70167 | -106.72921 | 33020 ft | 531 kts | 119° |
| 2026-04-22 05:03 | 62.66247 | -106.56758 | 33018 ft | 531 kts | 119° |
| 2026-04-22 05:04 | 62.62289 | -106.40561 | 33006 ft | 532 kts | 119° |
| 2026-04-22 05:04 | 62.58354 | -106.24580 | 33003 ft | 532 kts | 120° |
| 2026-04-22 05:05 | 62.54307 | -106.08261 | 32995 ft | 532 kts | 120° |
| 2026-04-22 05:05 | 62.50294 | -105.92200 | 32992 ft | 533 kts | 120° |
| 2026-04-22 05:06 | 62.46272 | -105.76217 | 32995 ft | 533 kts | 120° |
| 2026-04-22 05:06 | 62.42211 | -105.60194 | 32998 ft | 533 kts | 120° |
| 2026-04-22 05:07 | 62.38155 | -105.44308 | 33003 ft | 534 kts | 120° |
| 2026-04-22 05:07 | 62.34105 | -105.28556 | 33006 ft | 534 kts | 121° |
| 2026-04-22 05:08 | 62.30055 | -105.12920 | 33006 ft | 534 kts | 121° |
| 2026-04-22 05:08 | 62.25928 | -104.97096 | 33011 ft | 533 kts | 121° |
| 2026-04-22 05:09 | 62.21827 | -104.81481 | 33054 ft | 533 kts | 121° |
| 2026-04-22 05:09 | 62.17651 | -104.65693 | 33073 ft | 533 kts | 121° |
| 2026-04-22 05:10 | 62.13535 | -104.50243 | 33069 ft | 534 kts | 121° |
| 2026-04-22 05:10 | 62.09365 | -104.34697 | 33062 ft | 535 kts | 122° |
| 2026-04-22 05:11 | 62.05164 | -104.19143 | 33054 ft | 535 kts | 122° |
| 2026-04-22 05:11 | 62.00841 | -104.03250 | 33061 ft | 536 kts | 122° |
| 2026-04-22 05:12 | 61.96463 | -103.88009 | 33066 ft | 536 kts | 123° |
| 2026-04-22 05:12 | 61.91946 | -103.72689 | 33088 ft | 536 kts | 123° |
| 2026-04-22 05:13 | 61.87466 | -103.57586 | 33105 ft | 536 kts | 123° |